Time;durP1;ratioP1;P1;durP2;ratioP2;P2;SDS_P1;SDS_P2;PMS_P1;PMS_P2;Temp;Humidity;BMP_temperature;BMP_pressure;BME280_temperature;BME280_humidity;BME280_pressure;Samples;Min_cycle;Max_cycle;Signal;HPM_P1;HPM_P2
2022/05/06 00:00:30;;;;;;;;;;;;;;;9.89;100.00;100247.59;5077478;28;19916;-76
2022/05/06 00:02:55;;;;;;;;;;;;;;;9.80;100.00;100248.22;5076871;28;19917;-77
2022/05/06 00:05:20;;;;;;;;;;;;;;;9.86;100.00;100247.50;5077725;28;19939;-77
2022/05/06 00:07:46;;;;;;;;;;;;;;;9.79;100.00;100266.56;5077457;28;20555;-77
2022/05/06 00:10:11;;;;;;;;;;;;;;;9.62;100.00;100277.50;5077259;28;19920;-77
2022/05/06 00:12:36;;;;;;;;;;;;;;;9.63;100.00;100271.41;5077685;28;19920;-76
2022/05/06 00:15:04;;;;;;;;;;;;;;;9.75;100.00;100259.47;5077235;28;20197;-77
2022/05/06 00:17:30;;;;;;;;;;;;;;;9.67;100.00;100272.38;5076825;28;19916;-76
2022/05/06 00:19:55;;;;;;;;;;;;;;;9.74;100.00;100265.56;5075208;28;20018;-78
2022/05/06 00:22:20;;;;;;;;;;;;;;;9.89;100.00;100255.50;5077717;28;19919;-78
2022/05/06 00:24:46;;;;;;;;;;;;;;;9.82;100.00;100319.25;5060406;28;20396;-77
2022/05/06 00:27:12;;;;;;;;;;;;;;;9.91;100.00;100316.91;5054479;28;20355;-78
2022/05/06 00:29:37;;;;;;;;;;;;;;;9.85;100.00;100316.72;5055958;28;19923;-76
2022/05/06 00:32:02;;;;;;;;;;;;;;;9.92;100.00;100325.72;5052859;28;19974;-77
2022/05/06 00:34:29;;;;;;;;;;;;;;;9.99;100.00;100328.56;5069534;28;19935;-74
2022/05/06 00:36:55;;;;;;;;;;;;;;;10.00;100.00;100316.31;5069407;28;19936;-76
2022/05/06 00:39:20;;;;;;;;;;;;;;;9.91;100.00;100324.81;5069515;28;19917;-75
2022/05/06 00:41:46;;;;;;;;;;;;;;;9.97;100.00;100332.88;5068816;28;19923;-75
2022/05/06 00:44:13;;;;;;;;;;;;;;;10.04;100.00;100333.97;5068981;28;19967;-76
2022/05/06 00:46:39;;;;;;;;;;;;;;;10.12;100.00;100342.09;5069976;28;19968;-76
2022/05/06 00:49:12;;;;;;;;;;;;;;;10.13;100.00;100360.56;5068654;28;19916;-76
2022/05/06 00:51:38;;;;;;;;;;;;;;;10.03;100.00;100369.88;5069628;28;19956;-73
2022/05/06 00:54:03;;;;;;;;;;;;;;;10.07;100.00;100371.78;5053568;28;19916;-76
2022/05/06 00:56:29;;;;;;;;;;;;;;;10.05;100.00;100373.47;5052355;28;19940;-77
2022/05/06 00:58:54;;;;;;;;;;;;;;;10.16;100.00;100375.53;5052282;28;19917;-76
2022/05/06 01:01:19;;;;;;;;;;;;;;;10.20;100.00;100385.31;5069453;28;19957;-76
2022/05/06 01:03:46;;;;;;;;;;;;;;;10.13;100.00;100392.13;5068727;28;19924;-77
2022/05/06 01:06:14;;;;;;;;;;;;;;;10.07;100.00;100403.34;5053737;28;19916;-76
2022/05/06 01:08:41;;;;;;;;;;;;;;;10.03;100.00;100404.09;5069237;28;19917;-76
2022/05/06 01:11:06;;;;;;;;;;;;;;;9.88;100.00;100422.00;5068590;28;19921;-76
2022/05/06 01:13:43;;;;;;;;;;;;;;;9.84;100.00;100422.78;5069038;28;20303;-76
2022/05/06 01:16:08;;;;;;;;;;;;;;;9.89;100.00;100423.81;5068807;28;19999;-76
2022/05/06 01:18:34;;;;;;;;;;;;;;;9.92;100.00;100428.28;5068485;28;19967;-77
2022/05/06 01:21:01;;;;;;;;;;;;;;;9.83;100.00;100426.25;5068312;28;19931;-76
2022/05/06 01:23:28;;;;;;;;;;;;;;;9.95;100.00;100429.25;5068758;28;19917;-75
2022/05/06 01:25:53;;;;;;;;;;;;;;;9.88;100.00;100433.44;5067962;28;19921;-76
2022/05/06 01:28:20;;;;;;;;;;;;;;;9.97;100.00;100438.09;5054166;28;19925;-74
2022/05/06 01:30:47;;;;;;;;;;;;;;;10.05;100.00;100426.09;5052047;28;20294;-75
2022/05/06 01:33:16;;;;;;;;;;;;;;;10.14;100.00;100430.72;5051800;28;19921;-76
2022/05/06 01:35:55;;;;;;;;;;;;;;;10.11;100.00;100441.16;5069003;28;19963;-76
2022/05/06 01:38:31;;;;;;;;;;;;;;;10.06;100.00;100437.50;5052162;28;19917;-76
2022/05/06 01:41:00;;;;;;;;;;;;;;;10.08;100.00;100441.06;5052091;28;19984;-76
2022/05/06 01:43:27;;;;;;;;;;;;;;;10.07;100.00;100439.28;5067607;28;19916;-74
2022/05/06 01:45:54;;;;;;;;;;;;;;;9.96;100.00;100448.56;5087546;28;19916;-75
2022/05/06 01:48:21;;;;;;;;;;;;;;;9.99;100.00;100461.81;5089063;28;20035;-75
2022/05/06 01:50:47;;;;;;;;;;;;;;;9.97;100.00;100453.88;5088632;28;20375;-77
2022/05/06 01:53:17;;;;;;;;;;;;;;;10.00;100.00;100463.59;5088634;28;20413;-76
2022/05/06 01:55:43;;;;;;;;;;;;;;;9.98;100.00;100460.03;5072745;28;20368;-75
2022/05/06 01:58:09;;;;;;;;;;;;;;;9.94;100.00;100471.31;5088303;28;19916;-76
2022/05/06 02:00:36;;;;;;;;;;;;;;;10.03;100.00;100476.84;5088220;28;19920;-75
2022/05/06 02:03:02;;;;;;;;;;;;;;;10.03;100.00;100474.22;5087824;28;19916;-75
2022/05/06 02:05:27;;;;;;;;;;;;;;;9.98;100.00;100476.72;5088630;28;19923;-74
2022/05/06 02:07:53;;;;;;;;;;;;;;;9.98;100.00;100481.97;5085406;28;19924;-77
2022/05/06 02:10:20;;;;;;;;;;;;;;;9.95;100.00;100489.75;5088594;28;20392;-77
2022/05/06 02:12:45;;;;;;;;;;;;;;;9.95;100.00;100487.13;5078376;28;19920;-76
2022/05/06 02:15:11;;;;;;;;;;;;;;;9.94;100.00;100487.09;5088199;28;20416;-77
2022/05/06 02:17:38;;;;;;;;;;;;;;;9.81;100.00;100494.56;5087735;28;19923;-76
2022/05/06 02:20:05;;;;;;;;;;;;;;;9.92;100.00;100487.03;5087524;28;19925;-76
2022/05/06 02:22:31;;;;;;;;;;;;;;;9.90;100.00;100483.47;5079578;28;20018;-74
2022/05/06 02:24:56;;;;;;;;;;;;;;;9.99;100.00;100483.78;5053659;28;19975;-76
2022/05/06 02:27:22;;;;;;;;;;;;;;;9.98;100.00;100479.34;5065875;28;19923;-75
2022/05/06 02:35:17;;;;;;;;;;;;;;;10.01;100.00;100487.34;5071648;28;19923;-76
2022/05/06 02:37:42;;;;;;;;;;;;;;;10.05;100.00;100498.84;5071150;28;19917;-77
2022/05/06 02:40:09;;;;;;;;;;;;;;;9.99;100.00;100498.63;5070201;28;19923;-76
2022/05/06 02:42:34;;;;;;;;;;;;;;;9.97;100.00;100501.22;5060739;28;19986;-76
2022/05/06 02:45:00;;;;;;;;;;;;;;;9.94;100.00;100503.75;5050199;28;20373;-77
2022/05/06 02:47:26;;;;;;;;;;;;;;;9.90;100.00;100509.78;5050619;28;19916;-75
2022/05/06 02:49:52;;;;;;;;;;;;;;;9.87;100.00;100514.94;5049445;28;20407;-75
2022/05/06 02:52:18;;;;;;;;;;;;;;;9.94;100.00;100516.91;5067361;28;19921;-76
2022/05/06 02:54:45;;;;;;;;;;;;;;;9.96;100.00;100524.84;5051310;28;20498;-75
2022/05/06 02:57:10;;;;;;;;;;;;;;;9.95;100.00;100526.59;5074539;28;19977;-76
2022/05/06 02:59:35;;;;;;;;;;;;;;;9.84;100.00;100525.34;5087147;28;20303;-73
2022/05/06 03:02:01;;;;;;;;;;;;;;;9.83;100.00;100524.44;5070308;28;19934;-76
2022/05/06 03:04:26;;;;;;;;;;;;;;;9.84;100.00;100520.09;5069577;28;20015;-77
2022/05/06 03:06:52;;;;;;;;;;;;;;;9.82;100.00;100527.00;5064444;28;19916;-77
2022/05/06 03:09:17;;;;;;;;;;;;;;;9.78;100.00;100528.66;5081732;28;19926;-76
2022/05/06 03:11:43;;;;;;;;;;;;;;;9.85;100.00;100516.59;5086862;28;19920;-75
2022/05/06 03:14:08;;;;;;;;;;;;;;;9.87;100.00;100528.06;5086691;28;19912;-75
2022/05/06 03:16:34;;;;;;;;;;;;;;;9.79;100.00;100524.28;5089577;28;19917;-76
2022/05/06 03:19:00;;;;;;;;;;;;;;;9.81;100.00;100519.97;5090705;28;20059;-74
2022/05/06 03:21:26;;;;;;;;;;;;;;;9.90;100.00;100517.66;5087549;28;19955;-74
2022/05/06 03:23:52;;;;;;;;;;;;;;;9.93;100.00;100512.50;5090321;28;20018;-76
2022/05/06 03:26:17;;;;;;;;;;;;;;;9.94;100.00;100500.22;5090674;28;20416;-75
2022/05/06 03:28:43;;;;;;;;;;;;;;;10.00;100.00;100505.69;5090258;28;20020;-75
2022/05/06 03:31:09;;;;;;;;;;;;;;;9.91;100.00;100503.66;5090577;28;20347;-74
2022/05/06 03:33:35;;;;;;;;;;;;;;;9.77;100.00;100512.81;5074066;28;20480;-75
2022/05/06 03:36:01;;;;;;;;;;;;;;;9.71;100.00;100508.28;5073964;28;19924;-76
2022/05/06 03:38:27;;;;;;;;;;;;;;;9.70;100.00;100514.34;5074109;28;19928;-75
2022/05/06 03:40:52;;;;;;;;;;;;;;;9.69;100.00;100515.19;5073522;28;19920;-74
2022/05/06 03:43:17;;;;;;;;;;;;;;;9.74;100.00;100515.34;5053577;28;20015;-76
2022/05/06 03:45:43;;;;;;;;;;;;;;;9.77;100.00;100516.38;5070756;28;20134;-74
2022/05/06 03:48:08;;;;;;;;;;;;;;;9.70;100.00;100522.25;5070348;28;19924;-76
2022/05/06 03:53:18;;;;;;;;;;;;;;;9.69;100.00;100502.94;5068523;28;19932;-75
2022/05/06 03:55:43;;;;;;;;;;;;;;;9.68;100.00;100506.41;5070097;28;19924;-74
2022/05/06 03:58:08;;;;;;;;;;;;;;;9.63;100.00;100497.50;5068643;28;20011;-75
2022/05/06 04:00:34;;;;;;;;;;;;;;;9.57;100.00;100509.50;5065824;28;19979;-74
2022/05/06 04:02:59;;;;;;;;;;;;;;;9.68;100.00;100492.38;5072790;28;19921;-73
2022/05/06 04:05:24;;;;;;;;;;;;;;;9.67;100.00;100501.09;5073955;28;20404;-74
2022/05/06 04:07:50;;;;;;;;;;;;;;;9.73;100.00;100490.78;5074563;28;19943;-75
2022/05/06 04:10:15;;;;;;;;;;;;;;;9.70;100.00;100495.94;5089562;28;19916;-75
2022/05/06 04:12:41;;;;;;;;;;;;;;;9.74;100.00;100484.72;5089642;28;20246;-74
2022/05/06 04:15:06;;;;;;;;;;;;;;;9.67;100.00;100480.94;5089713;28;19923;-75
2022/05/06 04:17:32;;;;;;;;;;;;;;;9.77;100.00;100481.25;5090088;28;20284;-75
2022/05/06 04:25:25;;;;;;;;;;;;;;;9.73;100.00;100476.75;5073900;28;20288;-74
2022/05/06 04:27:50;;;;;;;;;;;;;;;9.84;100.00;100467.50;5088868;28;19916;-75
2022/05/06 04:30:16;;;;;;;;;;;;;;;9.67;100.00;100478.31;5067764;28;19923;-74
2022/05/06 04:32:41;;;;;;;;;;;;;;;9.70;100.00;100465.28;5075715;28;20004;-74
2022/05/06 04:35:08;;;;;;;;;;;;;;;9.75;100.00;100461.94;5076070;28;19923;-75
2022/05/06 04:37:33;;;;;;;;;;;;;;;9.66;100.00;100460.78;5075996;28;20376;-75
2022/05/06 04:39:59;;;;;;;;;;;;;;;9.75;100.00;100433.88;5093293;28;19969;-79
2022/05/06 04:42:24;;;;;;;;;;;;;;;9.90;100.00;100433.50;5059520;28;19924;-76
2022/05/06 04:44:49;;;;;;;;;;;;;;;9.87;100.00;100429.03;5058979;28;19924;-75
2022/05/06 04:47:15;;;;;;;;;;;;;;;9.93;100.00;100420.44;5075616;28;19916;-77
2022/05/06 04:49:40;;;;;;;;;;;;;;;9.83;100.00;100416.59;5061635;28;19927;-76
2022/05/06 04:52:05;;;;;;;;;;;;;;;9.81;100.00;100430.56;5055511;28;20027;-76
2022/05/06 04:54:32;;;;;;;;;;;;;;;9.78;100.00;100430.47;5072613;28;19916;-76
2022/05/06 04:56:57;;;;;;;;;;;;;;;9.80;100.00;100434.91;5055574;28;19912;-76
2022/05/06 04:59:22;;;;;;;;;;;;;;;9.84;100.00;100430.66;5072591;28;19920;-77
2022/05/06 05:01:48;;;;;;;;;;;;;;;9.80;100.00;100434.91;5055048;28;19912;-78
2022/05/06 05:04:15;;;;;;;;;;;;;;;9.74;100.00;100439.09;5071951;28;19928;-76
2022/05/06 05:06:41;;;;;;;;;;;;;;;9.81;100.00;100436.72;5055102;28;20296;-75
2022/05/06 05:09:06;;;;;;;;;;;;;;;9.93;100.00;100430.97;5073408;28;19931;-75
2022/05/06 05:11:34;;;;;;;;;;;;;;;10.00;100.00;100425.03;5071944;28;19916;-77
2022/05/06 05:14:02;;;;;;;;;;;;;;;9.98;100.00;100432.00;5073158;28;20276;-76
2022/05/06 05:16:28;;;;;;;;;;;;;;;10.07;100.00;100437.53;5071658;28;20304;-76
2022/05/06 05:18:53;;;;;;;;;;;;;;;9.93;100.00;100445.84;5071785;28;19982;-76
2022/05/06 05:21:18;;;;;;;;;;;;;;;10.10;100.00;100439.41;5054581;28;20280;-76
2022/05/06 05:23:45;;;;;;;;;;;;;;;10.20;100.00;100440.56;5055194;28;19917;-76
2022/05/06 05:26:10;;;;;;;;;;;;;;;10.23;100.00;100436.28;5071613;28;19919;-76
2022/05/06 05:28:35;;;;;;;;;;;;;;;10.27;100.00;100441.63;5062401;28;19916;-77
2022/05/06 05:31:00;;;;;;;;;;;;;;;10.10;100.00;100462.16;5092901;28;19943;-76
2022/05/06 05:33:27;;;;;;;;;;;;;;;10.25;100.00;100460.00;5074974;28;19924;-76
2022/05/06 05:35:52;;;;;;;;;;;;;;;10.13;100.00;100472.78;5074045;28;20292;-76
2022/05/06 05:38:17;;;;;;;;;;;;;;;10.11;100.00;100482.38;5057960;28;19965;-76
2022/05/06 05:40:43;;;;;;;;;;;;;;;10.27;100.00;100483.75;5071451;28;19920;-77
2022/05/06 05:48:19;;;;;;;;;;;;;;;10.36;100.00;100482.34;5070521;28;20364;-76
2022/05/06 05:48:37;;;;;;;;;;;;;;;10.44;100.00;100497.47;5093094;28;19943;-76
2022/05/06 05:51:03;;;;;;;;;;;;;;;10.50;100.00;100509.09;5073615;28;20459;-76
2022/05/06 05:53:30;;;;;;;;;;;;;;;10.62;100.00;100512.94;5091967;28;20026;-76
2022/05/06 05:55:55;;;;;;;;;;;;;;;10.60;100.00;100531.31;5074340;28;19971;-75
2022/05/06 05:58:20;;;;;;;;;;;;;;;10.71;100.00;100524.63;5074043;28;19947;-76
2022/05/06 06:00:46;;;;;;;;;;;;;;;10.68;100.00;100539.47;5091780;28;19931;-76
2022/05/06 06:03:13;;;;;;;;;;;;;;;10.65;100.00;100552.53;5073591;28;19916;-75
2022/05/06 06:05:39;;;;;;;;;;;;;;;10.76;100.00;100554.63;5073452;28;19920;-75
2022/05/06 06:08:04;;;;;;;;;;;;;;;10.71;100.00;100564.13;5092199;28;20417;-77
2022/05/06 06:10:29;;;;;;;;;;;;;;;10.78;100.00;100567.84;5091762;28;19916;-80
2022/05/06 06:12:56;;;;;;;;;;;;;;;10.85;100.00;100574.22;5091283;28;20314;-76
2022/05/06 06:15:21;;;;;;;;;;;;;;;10.95;100.00;100571.91;5091319;28;20422;-75
2022/05/06 06:17:47;;;;;;;;;;;;;;;10.98;100.00;100575.47;5073259;28;19924;-76
2022/05/06 06:20:12;;;;;;;;;;;;;;;10.89;100.00;100587.53;5073600;28;20382;-75
2022/05/06 06:22:37;;;;;;;;;;;;;;;10.92;100.00;100597.25;5074169;28;19920;-79
2022/05/06 06:25:03;;;;;;;;;;;;;;;11.15;100.00;100587.38;5072537;28;19920;-76
2022/05/06 06:27:28;;;;;;;;;;;;;;;11.10;100.00;100591.63;5056518;28;19951;-75
2022/05/06 06:29:53;;;;;;;;;;;;;;;11.11;100.00;100603.97;5091098;28;19920;-75
2022/05/06 06:32:19;;;;;;;;;;;;;;;11.10;100.00;100613.59;5072778;28;19998;-75
2022/05/06 06:34:44;;;;;;;;;;;;;;;11.37;100.00;100609.97;5091268;28;19920;-74
2022/05/06 06:37:09;;;;;;;;;;;;;;;11.42;100.00;100615.38;5073046;28;19923;-74
2022/05/06 06:39:36;;;;;;;;;;;;;;;11.65;100.00;100623.97;5072937;28;19924;-75
2022/05/06 06:42:02;;;;;;;;;;;;;;;11.81;100.00;100618.25;5072635;28;19939;-74
2022/05/06 06:44:27;;;;;;;;;;;;;;;11.80;100.00;100640.22;5091267;28;19916;-76
2022/05/06 06:46:54;;;;;;;;;;;;;;;11.90;100.00;100637.81;5072697;28;19920;-75
2022/05/06 06:49:20;;;;;;;;;;;;;;;12.01;100.00;100646.97;5074202;28;20048;-79
2022/05/06 06:51:45;;;;;;;;;;;;;;;12.80;100.00;100633.97;5078400;28;19924;-76
2022/05/06 06:54:11;;;;;;;;;;;;;;;12.92;100.00;100651.88;5077166;28;19916;-76
2022/05/06 06:56:37;;;;;;;;;;;;;;;13.41;100.00;100647.72;5078137;28;19916;-77
2022/05/06 06:59:03;;;;;;;;;;;;;;;13.22;100.00;100695.72;5095945;28;19923;-75
2022/05/06 07:01:32;;;;;;;;;;;;;;;13.59;100.00;100710.66;5096071;28;20017;-76
2022/05/06 07:04:00;;;;;;;;;;;;;;;13.83;100.00;100770.28;5077708;28;19916;-76
2022/05/06 07:11:53;;;;;;;;;;;;;;;15.92;100.00;101527.22;5096035;28;19926;-78
2022/05/06 07:14:21;;;;;;;;;;;;;;;15.70;100.00;101703.66;5077144;28;19912;-76
2022/05/06 07:16:47;;;;;;;;;;;;;;;16.88;100.00;101806.09;5093212;28;19916;-78
2022/05/06 07:19:12;;;;;;;;;;;;;;;17.41;100.00;102078.06;5077270;28;19912;-77
2022/05/06 07:21:38;;;;;;;;;;;;;;;17.54;100.00;102153.88;5077338;28;19951;-76
2022/05/06 07:24:05;;;;;;;;;;;;;;;18.24;100.00;102214.38;5077162;28;20519;-76
2022/05/06 07:26:31;;;;;;;;;;;;;;;18.76;100.00;102281.50;5077643;28;19914;-73
2022/05/06 07:28:56;;;;;;;;;;;;;;;18.91;100.00;102329.97;5094841;28;19923;-75
2022/05/06 07:31:22;;;;;;;;;;;;;;;19.06;100.00;102339.19;5095285;28;19920;-79
2022/05/06 07:33:47;;;;;;;;;;;;;;;18.47;100.00;102349.25;5059745;28;20018;-75
2022/05/06 07:36:13;;;;;;;;;;;;;;;17.97;100.00;102379.78;5076983;28;19920;-75
2022/05/06 07:38:38;;;;;;;;;;;;;;;18.97;100.00;102439.56;5095101;28;19916;-75
2022/05/06 07:41:04;;;;;;;;;;;;;;;20.09;100.00;102536.75;5060218;28;19931;-79
2022/05/06 07:43:30;;;;;;;;;;;;;;;19.39;100.00;102552.81;5076217;28;19920;-76
2022/05/06 07:45:56;;;;;;;;;;;;;;;19.14;100.00;102569.91;5095011;28;20268;-77
2022/05/06 07:48:21;;;;;;;;;;;;;;;19.79;100.00;102588.59;5076758;28;19924;-74
2022/05/06 07:50:46;;;;;;;;;;;;;;;20.71;100.00;102600.63;5076394;28;20014;-75
2022/05/06 07:53:17;;;;;;;;;;;;;;;20.74;100.00;102599.75;5094721;28;20295;-79
2022/05/06 07:55:43;;;;;;;;;;;;;;;20.37;100.00;102598.91;5077181;28;19927;-74
2022/05/06 07:58:10;;;;;;;;;;;;;;;20.28;100.00;102588.91;5093990;28;19916;-77
2022/05/06 08:00:36;;;;;;;;;;;;;;;20.40;100.00;102586.50;5094851;28;19920;-77
2022/05/06 08:05:47;;;;;;;;;;;;;;;20.74;100.00;102587.31;5095115;28;19969;-77
2022/05/06 08:08:13;;;;;;;;;;;;;;;20.76;100.00;102588.22;5076698;28;19939;-82
2022/05/06 08:10:38;;;;;;;;;;;;;;;20.04;100.00;102583.84;5075798;28;19916;-76
2022/05/06 08:13:03;;;;;;;;;;;;;;;20.32;100.00;102579.16;5094399;28;19954;-80
2022/05/06 08:15:29;;;;;;;;;;;;;;;20.00;100.00;102580.22;5076958;28;19916;-78
2022/05/06 08:17:54;;;;;;;;;;;;;;;20.49;100.00;102587.59;5094064;28;19916;-77
2022/05/06 08:20:19;;;;;;;;;;;;;;;20.54;100.00;102580.56;5076427;28;20379;-75
2022/05/06 08:22:45;;;;;;;;;;;;;;;19.86;100.00;102577.19;5094489;28;19947;-77
2022/05/06 08:25:11;;;;;;;;;;;;;;;20.20;100.00;102582.47;5075769;28;19916;-79
2022/05/06 08:27:40;;;;;;;;;;;;;;;20.80;100.00;102576.72;5076021;28;19943;-78
2022/05/06 08:30:06;;;;;;;;;;;;;;;21.14;100.00;102577.38;5093410;28;20011;-77
2022/05/06 08:32:32;;;;;;;;;;;;;;;20.95;100.00;102580.59;5092445;28;19920;-77
2022/05/06 08:34:57;;;;;;;;;;;;;;;21.25;100.00;102582.06;5074563;28;20391;-78
2022/05/06 08:37:24;;;;;;;;;;;;;;;20.89;100.00;102572.44;5093390;28;20027;-75
2022/05/06 08:39:49;;;;;;;;;;;;;;;20.98;100.00;102572.63;5092708;28;19916;-73
2022/05/06 08:42:23;;;;;;;;;;;;;;;20.08;100.00;102567.94;5093400;28;19969;-77
2022/05/06 08:53:02;;;;;;;;;;;;;;;19.85;100.00;102571.81;5092349;28;19923;-75
2022/05/06 08:55:28;;;;;;;;;;;;;;;19.54;100.00;102560.31;5073866;28;20452;-75
2022/05/06 08:57:54;;;;;;;;;;;;;;;20.32;100.00;102571.16;5074406;28;19967;-74
2022/05/06 09:00:22;;;;;;;;;;;;;;;20.60;100.00;102569.97;5091953;28;19916;-75
2022/05/06 09:02:48;;;;;;;;;;;;;;;19.94;100.00;102561.34;5074444;28;19916;-76
2022/05/06 09:05:14;;;;;;;;;;;;;;;20.70;100.00;102568.47;5092167;28;19920;-74
2022/05/06 09:07:40;;;;;;;;;;;;;;;19.87;100.00;102562.97;5073855;28;19920;-73
2022/05/06 09:10:06;;;;;;;;;;;;;;;20.66;100.00;102567.47;5074061;28;20403;-73
2022/05/06 09:12:46;;;;;;;;;;;;;;;20.34;100.00;102569.41;5092205;28;20328;-72
2022/05/06 09:17:57;;;;;;;;;;;;;;;20.39;100.00;102557.94;5092071;28;20375;-75
2022/05/06 09:20:24;;;;;;;;;;;;;;;20.77;100.00;102565.03;5073203;28;20010;-72
2022/05/06 09:22:52;;;;;;;;;;;;;;;21.00;100.00;102557.47;5073476;28;20359;-74
2022/05/06 09:25:33;;;;;;;;;;;;;;;20.75;100.00;102565.00;5073606;28;19974;-75
2022/05/06 09:27:58;;;;;;;;;;;;;;;20.11;100.00;102563.53;5072733;28;19916;-72
2022/05/06 09:30:23;;;;;;;;;;;;;;;20.33;100.00;102564.94;5073731;28;19916;-73
2022/05/06 09:32:49;;;;;;;;;;;;;;;20.20;100.00;102570.00;5063661;28;19925;-72
2022/05/06 09:35:14;;;;;;;;;;;;;;;20.37;100.00;102567.72;5071054;28;19927;-72
2022/05/06 09:37:40;;;;;;;;;;;;;;;20.00;100.00;102564.19;5071581;28;19917;-73
2022/05/06 09:40:08;;;;;;;;;;;;;;;19.92;100.00;102557.75;5069960;28;19917;-72
2022/05/06 09:42:34;;;;;;;;;;;;;;;19.88;100.00;102562.09;5053347;28;19921;-79
2022/05/06 09:45:00;;;;;;;;;;;;;;;19.76;100.00;102560.84;5070389;28;19917;-78
2022/05/06 09:47:25;;;;;;;;;;;;;;;20.05;100.00;102546.47;5071086;28;19917;-77
2022/05/06 09:49:52;;;;;;;;;;;;;;;19.96;100.00;102556.94;5053023;28;20583;-74
2022/05/06 09:52:17;;;;;;;;;;;;;;;19.61;100.00;102556.00;5071960;28;19916;-72
2022/05/06 09:54:43;;;;;;;;;;;;;;;20.05;100.00;102553.59;5070102;28;19939;-72
2022/05/06 09:57:09;;;;;;;;;;;;;;;20.42;100.00;102552.66;5070518;28;20387;-72
2022/05/06 09:59:35;;;;;;;;;;;;;;;20.19;100.00;102556.59;5069991;28;19920;-72
2022/05/06 10:02:01;;;;;;;;;;;;;;;19.42;100.00;102550.22;5070106;28;19917;-72
2022/05/06 10:04:28;;;;;;;;;;;;;;;19.59;100.00;102544.38;5070022;28;20368;-80
2022/05/06 10:06:57;;;;;;;;;;;;;;;20.03;100.00;102548.22;5070523;28;19956;-78
2022/05/06 10:09:23;;;;;;;;;;;;;;;19.79;100.00;102548.50;5071103;28;20286;-79
2022/05/06 10:11:49;;;;;;;;;;;;;;;20.10;100.00;102541.22;5070168;28;19922;-76
2022/05/06 10:14:15;;;;;;;;;;;;;;;20.14;100.00;102545.78;5071168;28;19920;-77
2022/05/06 10:16:41;;;;;;;;;;;;;;;20.00;100.00;102540.09;5054282;28;19929;-78
2022/05/06 10:19:26;;;;;;;;;;;;;;;19.75;100.00;102538.59;5070339;28;19963;-73
2022/05/06 10:21:51;;;;;;;;;;;;;;;20.25;100.00;102536.22;5069518;28;19916;-73
2022/05/06 10:24:17;;;;;;;;;;;;;;;20.55;100.00;102537.78;5069925;28;19916;-73
2022/05/06 10:26:46;;;;;;;;;;;;;;;20.52;100.00;102534.13;5069665;28;20364;-74
2022/05/06 10:32:26;;;;;;;;;;;;;;;20.36;100.00;102530.22;5070106;28;19927;-73
2022/05/06 10:34:55;;;;;;;;;;;;;;;20.86;100.00;102529.53;5070302;28;19916;-77
2022/05/06 10:37:20;;;;;;;;;;;;;;;20.63;100.00;102528.16;5072406;28;20406;-79
2022/05/06 10:39:46;;;;;;;;;;;;;;;21.08;100.00;102522.81;5070772;28;19917;-78
2022/05/06 10:42:15;;;;;;;;;;;;;;;20.93;100.00;102521.66;5070389;28;20399;-78
2022/05/06 10:44:42;;;;;;;;;;;;;;;21.39;100.00;102529.63;5070902;28;19920;-78
2022/05/06 10:47:27;;;;;;;;;;;;;;;21.62;100.00;102518.44;5069551;28;19923;-73
2022/05/06 10:49:53;;;;;;;;;;;;;;;21.32;100.00;102523.25;5041384;28;20262;-72
2022/05/06 10:52:32;;;;;;;;;;;;;;;21.16;100.00;102524.75;5070264;28;19923;-74
2022/05/06 10:55:00;;;;;;;;;;;;;;;20.86;100.00;102516.13;5070390;28;20395;-72
2022/05/06 10:57:26;;;;;;;;;;;;;;;20.88;100.00;102520.66;5069353;28;19946;-74
2022/05/06 11:00:02;;;;;;;;;;;;;;;20.91;100.00;102511.75;5069510;28;19917;-72
2022/05/06 11:02:28;;;;;;;;;;;;;;;20.30;100.00;102516.72;5069491;28;19923;-71
2022/05/06 11:04:54;;;;;;;;;;;;;;;20.07;100.00;102517.09;5070600;28;19944;-73
2022/05/06 11:07:20;;;;;;;;;;;;;;;19.84;100.00;102517.47;5068777;28;19924;-73
2022/05/06 11:09:46;;;;;;;;;;;;;;;20.14;100.00;102518.16;5069453;28;19917;-73
2022/05/06 11:12:27;;;;;;;;;;;;;;;20.49;100.00;102518.00;5070633;28;20305;-73
2022/05/06 11:14:57;;;;;;;;;;;;;;;20.16;100.00;102508.38;5068540;28;20445;-73
2022/05/06 11:17:22;;;;;;;;;;;;;;;19.84;100.00;102505.84;5069559;28;19912;-73
2022/05/06 11:19:47;;;;;;;;;;;;;;;19.72;100.00;102504.66;5069002;28;19996;-73
2022/05/06 11:22:13;;;;;;;;;;;;;;;19.67;100.00;102500.97;5068638;28;19942;-74
2022/05/06 11:24:38;;;;;;;;;;;;;;;19.86;100.00;102507.69;5070360;28;19916;-73
2022/05/06 11:27:17;;;;;;;;;;;;;;;20.01;100.00;102496.47;5068146;28;19928;-72
2022/05/06 11:29:49;;;;;;;;;;;;;;;19.90;100.00;102501.56;5069096;28;20517;-73
2022/05/06 11:32:15;;;;;;;;;;;;;;;19.94;100.00;102501.66;5052148;28;19931;-75
2022/05/06 11:34:45;;;;;;;;;;;;;;;20.04;100.00;102498.28;5069763;28;19917;-75
2022/05/06 11:37:11;;;;;;;;;;;;;;;19.71;100.00;102496.59;5070939;28;19917;-76
2022/05/06 11:39:36;;;;;;;;;;;;;;;19.52;100.00;102487.25;5073186;28;19917;-74
2022/05/06 11:42:37;;;;;;;;;;;;;;;19.52;100.00;102481.88;5072278;28;19923;-75
2022/05/06 11:47:47;;;;;;;;;;;;;;;19.67;100.00;102486.69;5069113;28;20403;-74
2022/05/06 11:50:12;;;;;;;;;;;;;;;19.68;100.00;102477.81;5072511;28;19916;-74
2022/05/06 11:52:38;;;;;;;;;;;;;;;19.43;100.00;102487.91;5072394;28;19920;-74
2022/05/06 11:55:04;;;;;;;;;;;;;;;19.70;100.00;102493.03;5073619;28;19920;-74
2022/05/06 11:57:30;;;;;;;;;;;;;;;19.60;100.00;102474.97;5072149;28;19917;-73
2022/05/06 11:59:55;;;;;;;;;;;;;;;19.79;100.00;102475.44;5071768;28;19917;-74
2022/05/06 12:02:20;;;;;;;;;;;;;;;19.65;100.00;102475.97;5071788;28;19962;-75
2022/05/06 12:04:46;;;;;;;;;;;;;;;19.77;100.00;102475.41;5073763;28;19912;-73
2022/05/06 12:07:11;;;;;;;;;;;;;;;20.30;100.00;102473.91;5072499;28;19917;-76
2022/05/06 12:09:43;;;;;;;;;;;;;;;20.57;100.00;102478.94;5071964;28;19970;-75
2022/05/06 12:12:10;;;;;;;;;;;;;;;20.77;100.00;102485.66;5072339;28;19942;-74
2022/05/06 12:14:36;;;;;;;;;;;;;;;21.07;100.00;102486.22;5072479;28;19921;-75
2022/05/06 12:17:03;;;;;;;;;;;;;;;21.15;100.00;102477.41;5072069;28;20317;-74
2022/05/06 12:19:41;;;;;;;;;;;;;;;21.36;100.00;102473.31;5073681;28;19924;-72
2022/05/06 12:22:08;;;;;;;;;;;;;;;21.20;100.00;102477.50;5071665;28;19920;-74
2022/05/06 12:24:37;;;;;;;;;;;;;;;21.09;100.00;102481.75;5072791;28;19999;-73
2022/05/06 12:27:03;;;;;;;;;;;;;;;20.80;100.00;102474.06;5055387;28;19921;-73
2022/05/06 12:29:34;;;;;;;;;;;;;;;20.97;100.00;102474.41;5072016;28;19912;-76
2022/05/06 12:32:00;;;;;;;;;;;;;;;20.95;100.00;102476.16;5070636;28;20360;-75
2022/05/06 12:34:31;;;;;;;;;;;;;;;20.90;100.00;102473.38;5072135;28;19947;-74
2022/05/06 12:37:13;;;;;;;;;;;;;;;20.83;100.00;102467.88;5074570;28;19959;-75
2022/05/06 12:39:45;;;;;;;;;;;;;;;20.78;100.00;102478.50;5072512;28;20030;-74
2022/05/06 12:42:11;;;;;;;;;;;;;;;20.95;100.00;102478.84;5074098;28;19924;-78
2022/05/06 12:44:39;;;;;;;;;;;;;;;20.98;100.00;102476.22;5073824;28;20394;-78
2022/05/06 12:50:02;;;;;;;;;;;;;;;20.49;100.00;102469.84;5074441;28;20019;-78
2022/05/06 12:52:28;;;;;;;;;;;;;;;20.52;100.00;102472.59;5073819;28;19923;-76
2022/05/06 12:54:54;;;;;;;;;;;;;;;20.32;100.00;102467.72;5056442;28;19920;-78
2022/05/06 12:57:20;;;;;;;;;;;;;;;20.57;100.00;102473.56;5074430;28;19916;-77
2022/05/06 12:59:45;;;;;;;;;;;;;;;20.27;100.00;102466.72;5074644;28;19923;-78
2022/05/06 13:02:10;;;;;;;;;;;;;;;20.09;100.00;102465.47;5073172;28;19916;-77
2022/05/06 13:04:36;;;;;;;;;;;;;;;20.21;100.00;102458.56;5073307;28;19922;-74
2022/05/06 13:07:01;;;;;;;;;;;;;;;20.24;100.00;102454.19;5070219;28;19970;-74
2022/05/06 13:09:27;;;;;;;;;;;;;;;20.51;100.00;102455.66;5070816;28;19916;-74
2022/05/06 13:11:52;;;;;;;;;;;;;;;20.60;100.00;102458.50;5070706;28;19923;-74